IFL2122 LIRF-EDDB
Flight info
| Callsign | IFL2122 |
|---|---|
| Flight time | 1h 36m |
| Altitude | 34000 |
| Route | SOVAN DCT AMTEL DCT GIPUK DCT MALUG/N0445F350 DCT ERANI/N0443F340 DCT SIMBA DCT TIVDA/N0446F350 DCT ETVIS DCT NAVEK DCT GAVLI/N0445F340 T203 ATGUP |
| Aircraft | A321/M-SDE3FGHIRWY/LB1 |
Departure
| Time | 2026-05-06 08:22 |
|---|---|
| Airport | Rome–Fiumicino Leonardo da Vinci International Airport (LIRF) |
Arrival
| Time | 2026-05-06 09:59 |
|---|---|
| Airport | Berlin Brandenburg Airport (EDDB) |
| Time | Latitude | Longitude | Altitude | Speed | Heading |
|---|---|---|---|---|---|
| 2026-05-06 07:45 | 41.79548 | 12.25899 | 14 ft | 0 kts | 295° |
| 2026-05-06 08:06 | 41.79542 | 12.25915 | 16 ft | 4 kts | 301° |
| 2026-05-06 08:06 | 41.79525 | 12.25942 | 15 ft | 4 kts | 331° |
| 2026-05-06 08:06 | 41.79502 | 12.25948 | 14 ft | 3 kts | 22° |
| 2026-05-06 08:07 | 41.79499 | 12.25946 | 14 ft | 0 kts | 25° |
| 2026-05-06 08:11 | 41.79511 | 12.25953 | 14 ft | 6 kts | 25° |
| 2026-05-06 08:11 | 41.79576 | 12.25994 | 14 ft | 12 kts | 25° |
| 2026-05-06 08:11 | 41.79651 | 12.26041 | 15 ft | 11 kts | 25° |
| 2026-05-06 08:12 | 41.79715 | 12.26082 | 14 ft | 10 kts | 26° |
| 2026-05-06 08:12 | 41.79769 | 12.26124 | 16 ft | 8 kts | 35° |
| 2026-05-06 08:12 | 41.79814 | 12.26128 | 16 ft | 6 kts | 323° |
| 2026-05-06 08:12 | 41.79840 | 12.26064 | 14 ft | 11 kts | 293° |
| 2026-05-06 08:13 | 41.79876 | 12.25960 | 14 ft | 12 kts | 295° |
| 2026-05-06 08:13 | 41.79911 | 12.25871 | 14 ft | 10 kts | 313° |
| 2026-05-06 08:13 | 41.79964 | 12.25877 | 15 ft | 8 kts | 29° |
| 2026-05-06 08:13 | 41.80006 | 12.25906 | 14 ft | 6 kts | 24° |
| 2026-05-06 08:14 | 41.80071 | 12.25945 | 14 ft | 15 kts | 24° |
| 2026-05-06 08:14 | 41.80167 | 12.26004 | 15 ft | 14 kts | 25° |
| 2026-05-06 08:14 | 41.80254 | 12.26057 | 14 ft | 13 kts | 25° |
| 2026-05-06 08:14 | 41.80332 | 12.26106 | 14 ft | 12 kts | 25° |
| 2026-05-06 08:15 | 41.80398 | 12.26147 | 17 ft | 9 kts | 25° |
| 2026-05-06 08:15 | 41.80448 | 12.26176 | 18 ft | 8 kts | 16° |
| 2026-05-06 08:15 | 41.80506 | 12.26191 | 16 ft | 8 kts | 33° |
| 2026-05-06 08:15 | 41.80539 | 12.26277 | 16 ft | 15 kts | 69° |
| 2026-05-06 08:16 | 41.80585 | 12.26445 | 16 ft | 22 kts | 70° |
| 2026-05-06 08:16 | 41.80636 | 12.26631 | 16 ft | 21 kts | 69° |
| 2026-05-06 08:16 | 41.80685 | 12.26809 | 14 ft | 20 kts | 70° |
| 2026-05-06 08:16 | 41.80730 | 12.26974 | 13 ft | 15 kts | 69° |
| 2026-05-06 08:17 | 41.80766 | 12.27099 | 13 ft | 14 kts | 66° |
| 2026-05-06 08:17 | 41.80832 | 12.27134 | 13 ft | 10 kts | 341° |
| 2026-05-06 08:17 | 41.80891 | 12.27104 | 13 ft | 8 kts | 339° |
| 2026-05-06 08:17 | 41.80895 | 12.27102 | 13 ft | 0 kts | 339° |
| 2026-05-06 08:18 | 41.80899 | 12.27100 | 13 ft | 3 kts | 339° |
| 2026-05-06 08:18 | 41.80947 | 12.27076 | 13 ft | 11 kts | 339° |
| 2026-05-06 08:19 | 41.80981 | 12.27014 | 13 ft | 8 kts | 264° |
| 2026-05-06 08:19 | 41.80974 | 12.26984 | 15 ft | 0 kts | 249° |
| 2026-05-06 08:21 | 41.80962 | 12.26943 | 15 ft | 15 kts | 249° |
| 2026-05-06 08:21 | 41.80838 | 12.26496 | 18 ft | 86 kts | 250° |
| 2026-05-06 08:22 | 41.80562 | 12.25496 | 17 ft | 142 kts | 249° |
| 2026-05-06 08:22 | 41.80169 | 12.24058 | 95 ft | 179 kts | 246° |
| 2026-05-06 08:22 | 41.79743 | 12.22483 | 710 ft | 179 kts | 247° |
| 2026-05-06 08:22 | 41.79325 | 12.20918 | 1380 ft | 179 kts | 246° |
| 2026-05-06 08:23 | 41.79138 | 12.19249 | 2005 ft | 185 kts | 264° |
| 2026-05-06 08:23 | 41.79387 | 12.17500 | 2371 ft | 200 kts | 287° |
| 2026-05-06 08:23 | 41.80142 | 12.15860 | 2728 ft | 214 kts | 306° |
| 2026-05-06 08:23 | 41.81247 | 12.14465 | 3120 ft | 221 kts | 315° |
| 2026-05-06 08:24 | 41.82442 | 12.13151 | 3558 ft | 221 kts | 316° |
| 2026-05-06 08:24 | 41.83583 | 12.11789 | 4024 ft | 218 kts | 310° |
| 2026-05-06 08:24 | 41.84780 | 12.10508 | 4485 ft | 223 kts | 323° |
| 2026-05-06 08:24 | 41.86265 | 12.09662 | 4668 ft | 243 kts | 340° |
| 2026-05-06 08:25 | 41.87960 | 12.08989 | 4802 ft | 266 kts | 340° |
| 2026-05-06 08:25 | 41.89791 | 12.08291 | 5220 ft | 278 kts | 341° |
| 2026-05-06 08:25 | 41.91663 | 12.07598 | 5889 ft | 280 kts | 341° |
| 2026-05-06 08:25 | 41.93547 | 12.06906 | 6596 ft | 281 kts | 340° |
| 2026-05-06 08:26 | 41.95440 | 12.06225 | 7289 ft | 283 kts | 344° |
| 2026-05-06 08:26 | 41.97419 | 12.05927 | 7938 ft | 289 kts | 352° |
| 2026-05-06 08:26 | 41.99437 | 12.05738 | 8551 ft | 293 kts | 351° |
| 2026-05-06 08:26 | 42.01475 | 12.05547 | 9185 ft | 295 kts | 351° |
| 2026-05-06 08:27 | 42.03533 | 12.05352 | 9831 ft | 298 kts | 351° |
| 2026-05-06 08:27 | 42.05624 | 12.05150 | 10232 ft | 309 kts | 351° |
| 2026-05-06 08:27 | 42.07802 | 12.04927 | 10354 ft | 327 kts | 351° |
| 2026-05-06 08:27 | 42.10128 | 12.04688 | 10485 ft | 344 kts | 351° |
| 2026-05-06 08:28 | 42.12564 | 12.04444 | 10699 ft | 357 kts | 352° |
| 2026-05-06 08:28 | 42.15069 | 12.04202 | 11160 ft | 363 kts | 352° |
| 2026-05-06 08:28 | 42.17606 | 12.03961 | 11667 ft | 367 kts | 352° |
| 2026-05-06 08:28 | 42.20138 | 12.03500 | 12192 ft | 369 kts | 346° |
| 2026-05-06 08:29 | 42.22678 | 12.02933 | 12730 ft | 371 kts | 346° |
| 2026-05-06 08:29 | 42.25239 | 12.02355 | 13273 ft | 375 kts | 346° |
| 2026-05-06 08:29 | 42.27820 | 12.01773 | 13804 ft | 377 kts | 346° |
| 2026-05-06 08:29 | 42.30420 | 12.01186 | 14265 ft | 380 kts | 346° |
| 2026-05-06 08:30 | 42.33039 | 12.00594 | 14722 ft | 383 kts | 346° |
| 2026-05-06 08:30 | 42.35676 | 12.00001 | 15173 ft | 385 kts | 346° |
| 2026-05-06 08:30 | 42.38334 | 11.99405 | 15620 ft | 388 kts | 347° |
| 2026-05-06 08:30 | 42.41010 | 11.98807 | 16045 ft | 392 kts | 346° |
| 2026-05-06 08:31 | 42.43709 | 11.98201 | 16470 ft | 395 kts | 346° |
| 2026-05-06 08:31 | 42.46426 | 11.97590 | 16906 ft | 397 kts | 346° |
| 2026-05-06 08:31 | 42.49163 | 11.96972 | 17331 ft | 399 kts | 346° |
| 2026-05-06 08:31 | 42.51916 | 11.96346 | 17750 ft | 402 kts | 346° |
| 2026-05-06 08:32 | 42.54679 | 11.95714 | 18145 ft | 404 kts | 346° |
| 2026-05-06 08:32 | 42.57465 | 11.95075 | 18502 ft | 406 kts | 346° |
| 2026-05-06 08:32 | 42.60258 | 11.94439 | 18832 ft | 408 kts | 347° |
| 2026-05-06 08:32 | 42.63071 | 11.93806 | 19134 ft | 411 kts | 347° |
| 2026-05-06 08:33 | 42.65904 | 11.93167 | 19443 ft | 413 kts | 347° |
| 2026-05-06 08:33 | 42.68744 | 11.92524 | 19762 ft | 415 kts | 347° |
| 2026-05-06 08:33 | 42.71600 | 11.91874 | 20078 ft | 417 kts | 347° |
| 2026-05-06 08:33 | 42.74467 | 11.91219 | 20392 ft | 419 kts | 347° |
| 2026-05-06 08:34 | 42.77347 | 11.90563 | 20700 ft | 420 kts | 347° |
| 2026-05-06 08:34 | 42.83090 | 11.89003 | 21324 ft | 420 kts | 338° |
| 2026-05-06 08:34 | 42.85750 | 11.87511 | 21629 ft | 418 kts | 328° |
| 2026-05-06 08:35 | 42.88311 | 11.85633 | 21942 ft | 419 kts | 327° |
| 2026-05-06 08:35 | 42.90883 | 11.83742 | 22239 ft | 421 kts | 327° |
| 2026-05-06 08:35 | 42.93470 | 11.81845 | 22576 ft | 423 kts | 327° |
| 2026-05-06 08:35 | 42.96072 | 11.79942 | 22902 ft | 425 kts | 327° |
| 2026-05-06 08:36 | 42.98686 | 11.78031 | 23226 ft | 427 kts | 327° |
| 2026-05-06 08:36 | 43.01316 | 11.76109 | 23562 ft | 429 kts | 328° |
| 2026-05-06 08:36 | 43.03955 | 11.74179 | 23843 ft | 431 kts | 328° |
| 2026-05-06 08:36 | 43.06607 | 11.72238 | 24105 ft | 433 kts | 328° |
| 2026-05-06 08:37 | 43.09265 | 11.70286 | 24368 ft | 435 kts | 327° |
| 2026-05-06 08:37 | 43.11032 | 11.68983 | 24564 ft | 436 kts | 327° |
| 2026-05-06 08:37 | 43.13702 | 11.67011 | 24841 ft | 437 kts | 327° |
| 2026-05-06 08:37 | 43.16389 | 11.65025 | 25065 ft | 440 kts | 327° |
| 2026-05-06 08:38 | 43.19221 | 11.63342 | 25305 ft | 448 kts | 337° |
| 2026-05-06 08:38 | 43.22276 | 11.62331 | 25545 ft | 456 kts | 347° |
| 2026-05-06 08:38 | 43.25462 | 11.62050 | 25788 ft | 464 kts | 358° |
| 2026-05-06 08:38 | 43.28704 | 11.62551 | 25979 ft | 472 kts | 7° |
| 2026-05-06 08:39 | 43.31938 | 11.63396 | 26219 ft | 474 kts | 7° |
| 2026-05-06 08:39 | 43.35179 | 11.64240 | 26462 ft | 475 kts | 7° |
| 2026-05-06 08:39 | 43.38441 | 11.65082 | 26691 ft | 477 kts | 7° |
| 2026-05-06 08:39 | 43.41712 | 11.65921 | 26927 ft | 479 kts | 7° |
| 2026-05-06 08:40 | 43.44999 | 11.66759 | 27172 ft | 481 kts | 6° |
| 2026-05-06 08:40 | 43.48299 | 11.67600 | 27398 ft | 483 kts | 6° |
| 2026-05-06 08:40 | 43.51611 | 11.68446 | 27659 ft | 483 kts | 7° |
| 2026-05-06 08:40 | 43.54920 | 11.69299 | 27921 ft | 484 kts | 7° |
| 2026-05-06 08:41 | 43.58239 | 11.70157 | 28152 ft | 486 kts | 6° |
| 2026-05-06 08:41 | 43.61568 | 11.71020 | 28383 ft | 487 kts | 6° |
| 2026-05-06 08:41 | 43.64908 | 11.71887 | 28564 ft | 489 kts | 6° |
| 2026-05-06 08:41 | 43.68260 | 11.72758 | 28763 ft | 491 kts | 6° |
| 2026-05-06 08:42 | 43.71617 | 11.73634 | 28949 ft | 492 kts | 6° |
| 2026-05-06 08:42 | 43.74988 | 11.74512 | 29119 ft | 494 kts | 6° |
| 2026-05-06 08:42 | 43.78368 | 11.75391 | 29295 ft | 495 kts | 6° |
| 2026-05-06 08:42 | 43.81762 | 11.76275 | 29479 ft | 496 kts | 6° |
| 2026-05-06 08:43 | 43.85150 | 11.77161 | 29710 ft | 496 kts | 6° |
| 2026-05-06 08:43 | 43.88497 | 11.78040 | 29937 ft | 495 kts | 6° |
| 2026-05-06 08:43 | 43.91884 | 11.78926 | 30116 ft | 495 kts | 6° |
| 2026-05-06 08:43 | 43.95273 | 11.79811 | 30263 ft | 495 kts | 6° |
| 2026-05-06 08:44 | 43.98653 | 11.80694 | 30424 ft | 495 kts | 6° |
| 2026-05-06 08:44 | 44.02037 | 11.81578 | 30622 ft | 495 kts | 6° |
| 2026-05-06 08:44 | 44.05426 | 11.82468 | 30738 ft | 495 kts | 6° |
| 2026-05-06 08:44 | 44.08815 | 11.83361 | 30858 ft | 497 kts | 6° |
| 2026-05-06 08:45 | 44.12211 | 11.84257 | 30994 ft | 498 kts | 6° |
| 2026-05-06 08:45 | 44.15617 | 11.85157 | 31168 ft | 498 kts | 6° |
| 2026-05-06 08:45 | 44.19020 | 11.86057 | 31356 ft | 497 kts | 6° |
| 2026-05-06 08:45 | 44.22422 | 11.86958 | 31514 ft | 498 kts | 6° |
| 2026-05-06 08:46 | 44.25824 | 11.87860 | 31704 ft | 497 kts | 6° |
| 2026-05-06 08:46 | 44.29183 | 11.88753 | 31889 ft | 497 kts | 6° |
| 2026-05-06 08:46 | 44.32580 | 11.89655 | 32105 ft | 497 kts | 6° |
| 2026-05-06 08:46 | 44.35971 | 11.90553 | 32295 ft | 496 kts | 6° |
| 2026-05-06 08:47 | 44.39365 | 11.91452 | 32492 ft | 496 kts | 6° |
| 2026-05-06 08:47 | 44.42763 | 11.92354 | 32659 ft | 496 kts | 6° |
| 2026-05-06 08:47 | 44.46160 | 11.93261 | 32844 ft | 496 kts | 6° |
| 2026-05-06 08:47 | 44.49548 | 11.94169 | 33028 ft | 496 kts | 6° |
| 2026-05-06 08:48 | 44.52941 | 11.95080 | 33212 ft | 496 kts | 6° |
| 2026-05-06 08:48 | 44.56333 | 11.95989 | 33407 ft | 496 kts | 6° |
| 2026-05-06 08:48 | 44.59714 | 11.96893 | 33594 ft | 495 kts | 5° |
| 2026-05-06 08:48 | 44.63095 | 11.97823 | 33771 ft | 495 kts | 6° |
| 2026-05-06 08:49 | 44.66469 | 11.98785 | 33923 ft | 494 kts | 6° |
| 2026-05-06 08:49 | 44.73186 | 12.00757 | 33943 ft | 491 kts | 6° |
| 2026-05-06 08:50 | 44.79874 | 12.02710 | 33943 ft | 490 kts | 6° |
| 2026-05-06 08:50 | 44.86550 | 12.04635 | 33939 ft | 490 kts | 6° |
| 2026-05-06 08:51 | 44.93233 | 12.06571 | 33940 ft | 490 kts | 6° |
| 2026-05-06 08:51 | 44.99876 | 12.08507 | 33944 ft | 491 kts | 6° |
| 2026-05-06 08:52 | 45.06558 | 12.10452 | 33944 ft | 490 kts | 6° |
| 2026-05-06 08:52 | 45.13240 | 12.12399 | 33958 ft | 490 kts | 6° |
| 2026-05-06 08:53 | 45.19922 | 12.14348 | 33946 ft | 491 kts | 6° |
| 2026-05-06 08:53 | 45.26614 | 12.16311 | 33937 ft | 491 kts | 6° |
| 2026-05-06 08:54 | 45.33318 | 12.18286 | 33951 ft | 492 kts | 6° |
| 2026-05-06 08:54 | 45.40028 | 12.20276 | 33948 ft | 493 kts | 6° |
| 2026-05-06 08:55 | 45.46767 | 12.22264 | 33949 ft | 494 kts | 6° |
| 2026-05-06 08:55 | 45.53445 | 12.24235 | 33944 ft | 493 kts | 6° |
| 2026-05-06 08:56 | 45.60162 | 12.26221 | 33915 ft | 493 kts | 6° |
| 2026-05-06 08:56 | 45.66887 | 12.28221 | 33917 ft | 494 kts | 6° |
| 2026-05-06 08:57 | 45.73614 | 12.30236 | 33960 ft | 494 kts | 6° |
| 2026-05-06 08:57 | 45.80351 | 12.32248 | 33953 ft | 495 kts | 6° |
| 2026-05-06 08:58 | 45.87097 | 12.34270 | 33950 ft | 495 kts | 6° |
| 2026-05-06 08:58 | 45.93844 | 12.36305 | 33958 ft | 496 kts | 6° |
| 2026-05-06 08:59 | 46.00568 | 12.38325 | 33962 ft | 497 kts | 6° |
| 2026-05-06 08:59 | 46.07339 | 12.40367 | 33961 ft | 497 kts | 6° |
| 2026-05-06 09:00 | 46.14101 | 12.42424 | 33959 ft | 497 kts | 6° |
| 2026-05-06 09:00 | 46.20873 | 12.44477 | 33967 ft | 497 kts | 6° |
| 2026-05-06 09:01 | 46.27640 | 12.46529 | 33938 ft | 497 kts | 6° |
| 2026-05-06 09:01 | 46.34412 | 12.48617 | 33948 ft | 498 kts | 6° |
| 2026-05-06 09:02 | 46.41186 | 12.50708 | 33934 ft | 497 kts | 6° |
| 2026-05-06 09:02 | 46.47957 | 12.52778 | 33943 ft | 497 kts | 6° |
| 2026-05-06 09:03 | 46.50810 | 12.53645 | 33953 ft | 497 kts | 6° |
| 2026-05-06 09:03 | 46.56314 | 12.55338 | 33954 ft | 497 kts | 6° |
| 2026-05-06 09:04 | 46.63077 | 12.57429 | 33947 ft | 496 kts | 6° |
| 2026-05-06 09:04 | 46.69790 | 12.59510 | 33951 ft | 497 kts | 6° |
| 2026-05-06 09:05 | 46.76547 | 12.61698 | 33957 ft | 497 kts | 7° |
| 2026-05-06 09:05 | 46.83288 | 12.64032 | 33950 ft | 498 kts | 8° |
| 2026-05-06 09:06 | 46.90022 | 12.66382 | 33927 ft | 498 kts | 8° |
| 2026-05-06 09:06 | 46.96749 | 12.68693 | 33919 ft | 495 kts | 8° |
| 2026-05-06 09:07 | 47.03461 | 12.70963 | 33907 ft | 495 kts | 7° |
| 2026-05-06 09:07 | 47.10169 | 12.73245 | 33902 ft | 494 kts | 8° |
| 2026-05-06 09:08 | 47.16848 | 12.75546 | 33892 ft | 493 kts | 8° |
| 2026-05-06 09:08 | 47.23516 | 12.77859 | 33855 ft | 492 kts | 8° |
| 2026-05-06 09:09 | 47.30129 | 12.80150 | 33866 ft | 492 kts | 8° |
| 2026-05-06 09:09 | 47.36854 | 12.82481 | 33829 ft | 494 kts | 8° |
| 2026-05-06 09:10 | 47.43492 | 12.84804 | 33810 ft | 494 kts | 9° |
| 2026-05-06 09:10 | 47.50188 | 12.87145 | 33829 ft | 495 kts | 8° |
| 2026-05-06 09:11 | 47.56893 | 12.89487 | 33817 ft | 495 kts | 8° |
| 2026-05-06 09:11 | 47.63593 | 12.91846 | 33819 ft | 495 kts | 9° |
| 2026-05-06 09:12 | 47.70288 | 12.94208 | 33811 ft | 494 kts | 9° |
| 2026-05-06 09:12 | 47.77024 | 12.95757 | 33817 ft | 488 kts | 359° |
| 2026-05-06 09:13 | 47.83800 | 12.96593 | 33830 ft | 488 kts | 359° |
| 2026-05-06 09:13 | 47.90560 | 12.97457 | 33830 ft | 488 kts | 359° |
| 2026-05-06 09:14 | 47.97278 | 12.98308 | 33835 ft | 487 kts | 359° |
| 2026-05-06 09:14 | 48.04033 | 12.99158 | 33841 ft | 487 kts | 359° |
| 2026-05-06 09:15 | 48.10786 | 13.00009 | 33841 ft | 487 kts | 359° |
| 2026-05-06 09:15 | 48.17543 | 13.00870 | 33842 ft | 487 kts | 359° |
| 2026-05-06 09:16 | 48.24256 | 13.01090 | 33842 ft | 477 kts | 347° |
| 2026-05-06 09:16 | 48.30719 | 12.99311 | 33838 ft | 472 kts | 342° |
| 2026-05-06 09:17 | 48.37178 | 12.97421 | 33873 ft | 472 kts | 342° |
| 2026-05-06 09:17 | 48.43606 | 12.95566 | 33860 ft | 472 kts | 342° |
| 2026-05-06 09:18 | 48.50056 | 12.93683 | 33852 ft | 472 kts | 342° |
| 2026-05-06 09:18 | 48.56496 | 12.91784 | 33847 ft | 472 kts | 342° |
| 2026-05-06 09:19 | 48.62944 | 12.89872 | 33859 ft | 471 kts | 342° |
| 2026-05-06 09:19 | 48.69375 | 12.87970 | 33852 ft | 471 kts | 342° |
| 2026-05-06 09:20 | 48.75806 | 12.86067 | 33847 ft | 470 kts | 342° |
| 2026-05-06 09:20 | 48.82230 | 12.84164 | 33862 ft | 470 kts | 342° |
| 2026-05-06 09:21 | 48.88648 | 12.82250 | 33854 ft | 470 kts | 342° |
| 2026-05-06 09:21 | 48.95027 | 12.80347 | 33847 ft | 470 kts | 342° |
| 2026-05-06 09:22 | 49.01442 | 12.78419 | 33839 ft | 470 kts | 342° |
| 2026-05-06 09:22 | 49.07856 | 12.76478 | 33852 ft | 470 kts | 342° |
| 2026-05-06 09:23 | 49.14268 | 12.74542 | 33841 ft | 470 kts | 342° |
| 2026-05-06 09:23 | 49.20685 | 12.72623 | 33840 ft | 469 kts | 342° |
| 2026-05-06 09:24 | 49.27066 | 12.70715 | 33863 ft | 469 kts | 342° |
| 2026-05-06 09:24 | 49.33466 | 12.68763 | 33854 ft | 469 kts | 342° |
| 2026-05-06 09:25 | 49.39939 | 12.67166 | 33955 ft | 478 kts | 351° |
| 2026-05-06 09:25 | 49.43288 | 12.67294 | 34136 ft | 486 kts | 1° |
| 2026-05-06 09:25 | 49.46621 | 12.68282 | 34308 ft | 492 kts | 13° |
| 2026-05-06 09:25 | 49.49830 | 12.70209 | 34500 ft | 497 kts | 22° |
| 2026-05-06 09:26 | 49.52950 | 12.72511 | 34656 ft | 497 kts | 22° |
| 2026-05-06 09:26 | 49.56067 | 12.74831 | 34800 ft | 498 kts | 23° |
| 2026-05-06 09:26 | 49.58171 | 12.76400 | 34827 ft | 497 kts | 23° |
| 2026-05-06 09:27 | 49.64454 | 12.80811 | 34818 ft | 493 kts | 15° |
| 2026-05-06 09:27 | 49.71037 | 12.83035 | 34829 ft | 486 kts | 3° |
| 2026-05-06 09:28 | 49.77734 | 12.84560 | 34821 ft | 486 kts | 4° |
| 2026-05-06 09:28 | 49.84433 | 12.86108 | 34818 ft | 486 kts | 4° |
| 2026-05-06 09:29 | 49.91137 | 12.87674 | 34818 ft | 486 kts | 4° |
| 2026-05-06 09:29 | 49.97803 | 12.89231 | 34849 ft | 487 kts | 4° |
| 2026-05-06 09:30 | 50.04519 | 12.90803 | 34847 ft | 487 kts | 4° |
| 2026-05-06 09:30 | 50.11226 | 12.92381 | 34852 ft | 487 kts | 4° |
| 2026-05-06 09:31 | 50.17945 | 12.93942 | 34864 ft | 487 kts | 4° |
| 2026-05-06 09:31 | 50.24650 | 12.95499 | 34874 ft | 487 kts | 4° |
| 2026-05-06 09:32 | 50.31201 | 12.98441 | 34864 ft | 495 kts | 22° |
| 2026-05-06 09:32 | 50.37321 | 13.03280 | 34824 ft | 496 kts | 24° |
| 2026-05-06 09:33 | 50.43496 | 13.08170 | 34573 ft | 496 kts | 24° |
| 2026-05-06 09:33 | 50.46583 | 13.10608 | 34325 ft | 497 kts | 24° |
| 2026-05-06 09:33 | 50.49673 | 13.13055 | 34082 ft | 498 kts | 24° |
| 2026-05-06 09:33 | 50.52764 | 13.15513 | 33845 ft | 499 kts | 24° |
| 2026-05-06 09:34 | 50.55862 | 13.17991 | 33576 ft | 500 kts | 24° |
| 2026-05-06 09:34 | 50.58962 | 13.20484 | 33304 ft | 500 kts | 24° |
| 2026-05-06 09:34 | 50.62052 | 13.22975 | 33050 ft | 498 kts | 24° |
| 2026-05-06 09:34 | 50.65134 | 13.25463 | 32767 ft | 497 kts | 24° |
| 2026-05-06 09:35 | 50.68206 | 13.27947 | 32493 ft | 494 kts | 24° |
| 2026-05-06 09:35 | 50.71259 | 13.30416 | 32229 ft | 492 kts | 24° |
| 2026-05-06 09:35 | 50.74296 | 13.32873 | 31964 ft | 489 kts | 24° |
| 2026-05-06 09:35 | 50.77279 | 13.35290 | 31705 ft | 486 kts | 24° |
| 2026-05-06 09:36 | 50.80279 | 13.37726 | 31448 ft | 484 kts | 24° |
| 2026-05-06 09:36 | 50.83267 | 13.40158 | 31035 ft | 480 kts | 24° |
| 2026-05-06 09:36 | 50.86221 | 13.42566 | 30482 ft | 476 kts | 24° |
| 2026-05-06 09:36 | 50.89157 | 13.44962 | 29947 ft | 473 kts | 24° |
| 2026-05-06 09:37 | 50.92097 | 13.47243 | 29349 ft | 467 kts | 18° |
| 2026-05-06 09:37 | 50.95135 | 13.48856 | 28841 ft | 456 kts | 9° |
| 2026-05-06 09:37 | 50.98217 | 13.49792 | 28333 ft | 447 kts | 5° |
| 2026-05-06 09:37 | 51.01270 | 13.50599 | 27822 ft | 442 kts | 5° |
| 2026-05-06 09:38 | 51.04279 | 13.51406 | 27331 ft | 437 kts | 5° |
| 2026-05-06 09:38 | 51.07263 | 13.52211 | 26840 ft | 431 kts | 5° |
| 2026-05-06 09:38 | 51.10204 | 13.53008 | 26337 ft | 426 kts | 5° |
| 2026-05-06 09:38 | 51.13112 | 13.53797 | 25847 ft | 421 kts | 5° |
| 2026-05-06 09:39 | 51.15980 | 13.54572 | 25372 ft | 415 kts | 5° |
| 2026-05-06 09:39 | 51.18772 | 13.55328 | 24917 ft | 410 kts | 5° |
| 2026-05-06 09:39 | 51.21605 | 13.56096 | 24456 ft | 405 kts | 5° |
| 2026-05-06 09:39 | 51.24367 | 13.56846 | 24007 ft | 401 kts | 5° |
| 2026-05-06 09:40 | 51.27103 | 13.57588 | 23569 ft | 397 kts | 6° |
| 2026-05-06 09:40 | 51.29781 | 13.58313 | 23080 ft | 394 kts | 6° |
| 2026-05-06 09:40 | 51.35125 | 13.59769 | 22193 ft | 384 kts | 6° |
| 2026-05-06 09:41 | 51.37741 | 13.60481 | 21764 ft | 379 kts | 6° |
| 2026-05-06 09:41 | 51.40325 | 13.61189 | 21324 ft | 375 kts | 6° |
| 2026-05-06 09:41 | 51.42898 | 13.61893 | 20887 ft | 372 kts | 6° |
| 2026-05-06 09:41 | 51.45436 | 13.62585 | 20445 ft | 369 kts | 6° |
| 2026-05-06 09:42 | 51.47955 | 13.63275 | 20004 ft | 366 kts | 6° |
| 2026-05-06 09:42 | 51.50463 | 13.63966 | 19554 ft | 364 kts | 6° |
| 2026-05-06 09:42 | 51.52956 | 13.64654 | 19116 ft | 362 kts | 6° |
| 2026-05-06 09:42 | 51.55437 | 13.65343 | 18656 ft | 361 kts | 5° |
| 2026-05-06 09:43 | 51.57874 | 13.66045 | 18215 ft | 360 kts | 7° |
| 2026-05-06 09:43 | 51.60324 | 13.66871 | 17723 ft | 359 kts | 8° |
| 2026-05-06 09:43 | 51.62755 | 13.67725 | 17364 ft | 352 kts | 4° |
| 2026-05-06 09:43 | 51.65177 | 13.67729 | 17237 ft | 353 kts | 345° |
| 2026-05-06 09:44 | 51.67480 | 13.66492 | 16965 ft | 343 kts | 325° |
| 2026-05-06 09:44 | 51.69411 | 13.64403 | 16710 ft | 329 kts | 319° |
| 2026-05-06 09:44 | 51.71260 | 13.62268 | 16339 ft | 324 kts | 319° |
| 2026-05-06 09:44 | 51.73084 | 13.60167 | 15960 ft | 320 kts | 319° |
| 2026-05-06 09:45 | 51.74884 | 13.58091 | 15600 ft | 316 kts | 319° |
| 2026-05-06 09:45 | 51.76666 | 13.56034 | 15224 ft | 313 kts | 319° |
| 2026-05-06 09:45 | 51.78428 | 13.54004 | 14854 ft | 310 kts | 319° |
| 2026-05-06 09:45 | 51.80174 | 13.51987 | 14483 ft | 307 kts | 319° |
| 2026-05-06 09:46 | 51.81905 | 13.49985 | 14121 ft | 305 kts | 319° |
| 2026-05-06 09:46 | 51.83603 | 13.48017 | 13818 ft | 302 kts | 319° |
| 2026-05-06 09:46 | 51.85310 | 13.46030 | 13602 ft | 303 kts | 319° |
| 2026-05-06 09:46 | 51.87013 | 13.44044 | 13177 ft | 301 kts | 319° |
| 2026-05-06 09:47 | 51.88713 | 13.42066 | 12707 ft | 300 kts | 319° |
| 2026-05-06 09:47 | 51.90406 | 13.40099 | 12237 ft | 300 kts | 319° |
| 2026-05-06 09:47 | 51.92097 | 13.38133 | 11772 ft | 299 kts | 319° |
| 2026-05-06 09:47 | 51.93782 | 13.36167 | 11319 ft | 296 kts | 319° |
| 2026-05-06 09:48 | 51.95432 | 13.34245 | 10867 ft | 288 kts | 319° |
| 2026-05-06 09:48 | 51.97035 | 13.32380 | 10418 ft | 280 kts | 319° |
| 2026-05-06 09:48 | 51.98592 | 13.30565 | 9993 ft | 272 kts | 319° |
| 2026-05-06 09:48 | 52.00106 | 13.28794 | 9541 ft | 265 kts | 319° |
| 2026-05-06 09:49 | 52.01584 | 13.27062 | 9048 ft | 259 kts | 320° |
| 2026-05-06 09:49 | 52.03039 | 13.25352 | 8553 ft | 259 kts | 320° |
| 2026-05-06 09:49 | 52.04495 | 13.23637 | 8062 ft | 256 kts | 321° |
| 2026-05-06 09:49 | 52.05926 | 13.21951 | 7573 ft | 253 kts | 321° |
| 2026-05-06 09:50 | 52.07346 | 13.20277 | 7098 ft | 251 kts | 321° |
| 2026-05-06 09:50 | 52.08755 | 13.18613 | 6631 ft | 250 kts | 321° |
| 2026-05-06 09:50 | 52.10133 | 13.16954 | 6247 ft | 250 kts | 321° |
| 2026-05-06 09:50 | 52.11518 | 13.15263 | 5864 ft | 248 kts | 321° |
| 2026-05-06 09:51 | 52.12891 | 13.13568 | 5473 ft | 247 kts | 321° |
| 2026-05-06 09:51 | 52.14247 | 13.11875 | 5097 ft | 245 kts | 321° |
| 2026-05-06 09:51 | 52.15580 | 13.10190 | 4711 ft | 239 kts | 321° |
| 2026-05-06 09:51 | 52.16873 | 13.08537 | 4334 ft | 236 kts | 321° |
| 2026-05-06 09:52 | 52.18165 | 13.06881 | 3952 ft | 235 kts | 321° |
| 2026-05-06 09:52 | 52.19495 | 13.05401 | 3579 ft | 231 kts | 336° |
| 2026-05-06 09:52 | 52.21064 | 13.04962 | 3200 ft | 229 kts | 358° |
| 2026-05-06 09:52 | 52.22617 | 13.05387 | 2982 ft | 221 kts | 17° |
| 2026-05-06 09:53 | 52.23951 | 13.06512 | 2984 ft | 214 kts | 33° |
| 2026-05-06 09:53 | 52.25018 | 13.08177 | 2988 ft | 213 kts | 50° |
| 2026-05-06 09:53 | 52.25757 | 13.10271 | 2986 ft | 214 kts | 66° |
| 2026-05-06 09:53 | 52.26303 | 13.12543 | 2996 ft | 215 kts | 66° |
| 2026-05-06 09:54 | 52.26854 | 13.14810 | 2995 ft | 215 kts | 66° |
| 2026-05-06 09:54 | 52.27402 | 13.17075 | 3010 ft | 213 kts | 65° |
| 2026-05-06 09:54 | 52.27937 | 13.19291 | 2997 ft | 207 kts | 65° |
| 2026-05-06 09:54 | 52.28450 | 13.21421 | 3000 ft | 200 kts | 66° |
| 2026-05-06 09:55 | 52.28955 | 13.23514 | 3003 ft | 198 kts | 67° |
| 2026-05-06 09:55 | 52.29458 | 13.25603 | 2893 ft | 197 kts | 65° |
| 2026-05-06 09:55 | 52.29955 | 13.27669 | 2669 ft | 194 kts | 66° |
| 2026-05-06 09:55 | 52.30435 | 13.29671 | 2433 ft | 190 kts | 66° |
| 2026-05-06 09:56 | 52.30918 | 13.31682 | 2172 ft | 190 kts | 67° |
| 2026-05-06 09:56 | 52.31383 | 13.33622 | 1924 ft | 175 kts | 66° |
| 2026-05-06 09:56 | 52.31807 | 13.35395 | 1690 ft | 162 kts | 65° |
| 2026-05-06 09:56 | 52.32210 | 13.37077 | 1473 ft | 157 kts | 65° |
| 2026-05-06 09:57 | 52.32609 | 13.38736 | 1254 ft | 155 kts | 66° |
| 2026-05-06 09:57 | 52.33004 | 13.40385 | 1059 ft | 157 kts | 68° |
| 2026-05-06 09:57 | 52.33384 | 13.42049 | 803 ft | 156 kts | 66° |
| 2026-05-06 09:57 | 52.33783 | 13.43698 | 584 ft | 155 kts | 65° |
| 2026-05-06 09:58 | 52.34185 | 13.45342 | 376 ft | 156 kts | 64° |
| 2026-05-06 09:58 | 52.34581 | 13.46997 | 212 ft | 157 kts | 65° |
| 2026-05-06 09:58 | 52.34941 | 13.48579 | 155 ft | 137 kts | 63° |
| 2026-05-06 09:58 | 52.35237 | 13.49757 | 154 ft | 86 kts | 66° |
| 2026-05-06 09:59 | 52.35373 | 13.50325 | 154 ft | 27 kts | 73° |
| 2026-05-06 09:59 | 52.35472 | 13.50545 | 154 ft | 21 kts | 45° |
| 2026-05-06 09:59 | 52.35559 | 13.50660 | 154 ft | 13 kts | 40° |
| 2026-05-06 09:59 | 52.35620 | 13.50743 | 154 ft | 10 kts | 39° |
| 2026-05-06 10:00 | 52.35663 | 13.50801 | 154 ft | 6 kts | 39° |
| 2026-05-06 10:00 | 52.35696 | 13.50835 | 154 ft | 8 kts | 24° |
| 2026-05-06 10:00 | 52.35766 | 13.50829 | 154 ft | 10 kts | 340° |
| 2026-05-06 10:00 | 52.35819 | 13.50797 | 154 ft | 6 kts | 340° |
| 2026-05-06 10:01 | 52.35851 | 13.50777 | 154 ft | 3 kts | 340° |
| 2026-05-06 10:01 | 52.35877 | 13.50765 | 154 ft | 7 kts | 353° |
| 2026-05-06 10:01 | 52.35915 | 13.50815 | 154 ft | 6 kts | 67° |
| 2026-05-06 10:01 | 52.35927 | 13.50863 | 154 ft | 5 kts | 68° |
| 2026-05-06 10:02 | 52.35948 | 13.50953 | 154 ft | 9 kts | 69° |
| 2026-05-06 10:02 | 52.35969 | 13.51043 | 154 ft | 9 kts | 69° |
| 2026-05-06 10:02 | 52.35988 | 13.51123 | 154 ft | 8 kts | 69° |
| 2026-05-06 10:02 | 52.36006 | 13.51200 | 154 ft | 6 kts | 69° |
| 2026-05-06 10:03 | 52.36030 | 13.51218 | 155 ft | 5 kts | 356° |
| 2026-05-06 10:03 | 52.36054 | 13.51203 | 155 ft | 3 kts | 337° |
| 2026-05-06 10:03 | 52.36079 | 13.51187 | 155 ft | 2 kts | 339° |
| 2026-05-06 10:03 | 52.36088 | 13.51182 | 155 ft | 2 kts | 339° |
| 2026-05-06 10:04 | 52.36090 | 13.51180 | 155 ft | 0 kts | 339° |
| 2026-05-06 10:04 | 52.36092 | 13.51179 | 155 ft | 0 kts | 339° |